Terminal Aerodrome Forecast
Issued by NWS

Home | Current Version | Previous Version | Text Only | Print | Product List | Glossary On
Versions: 1 2 3 4 5 6 7 8 9 10 11 12 13 14 15 16 17 18 19 20 21 22 23 24 25 26 27 28 29 30 31 32
000
FTUS43 KIND 260520
TAFHUF
TAF
KHUF 260520Z 2606/2706 31011G19KT P6SM VCSH OVC020
     FM260700 31012G20KT P6SM VCSH OVC012
     FM261000 32014G22KT P6SM VCSH BKN020
     FM261100 32014KT P6SM BKN070
     FM261200 31014KT P6SM SCT200=

USA.gov is the U.S. government's official web portal to all federal, state and local government web resources and services.